Airport Name : Maya Maya

Other Name : Brazzaville

ICAO : FCBB

IATA : BZV

FAA :

Latitude : -4.2517

Longitude : 15.253031

Country : Republic of the Congo

Local Date and Time : 1/23/2018 8:38:00 AM

 

TAF (Terminal Aerodrome Forecast)

TAF FCBB 230500Z 2306/2412 25005KT 6000 -TSRA SCT020 FEW026CB FM230900 26004KT 8000 BKN020 PROB30 2405/2408 4000 BR

 

METAR (METeorological Aerodrome Report)

FCBB 230700Z 36004KT 8000 FEW010 FEW026CB 22/21 Q1014 NOSIG

FCBB 230600Z 00000KT 9999 -RA FEW010 FEW026CB 22/20 Q1014 NOSIG

FCBB 230526Z 23002KT 9999 -RA FEW010 FEW026CB 22/20 Q1013 RETS NOSIG

FCBB 230500Z 20003KT 9999 -TSRA FEW010 FEW026CB 22/21 Q1013 NOSIG

FCBB 230400Z 15005KT 8000 -TSRA FEW010 SCT020 FEW026CB 22/21 Q1012 TEMPO 4000 TSRA